Portland, OR (97202)

1:24 PM PST on March 01, 2017 (GMT -0800)
Kenilworth/Creston | | Change Station

Elev 69 ft 45.49 °N, 122.64 °W | Updated 4 seconds ago

Overcast
Overcast
49.4 °F
Feels Like 49 °F
N
1.0
Wind Variable Wind from WSW

Today
High -- | Low -- °F
--% Chance of Precip.
Yesterday
High -- | Low -- °F
Precip. -- in
Pressure 30.49 in
Visibility 10.0 miles
Clouds Scattered Clouds 2600 ft
Mostly Cloudy 3600 ft
Overcast 4600 ft
Windchill 49 °F
Dew Point 42 °F
Humidity 75%
Rainfall 0.02 in
Snow Depth Not available.
6:48 AM 5:58 PM
Waxing Crescent, 13% visible
METAR KPDX 012053Z 21008G18KT 10SM SCT026 BKN036 OVC046 10/04 A3049 RMK AO2 SLP323 T01000039 58002
Pressure 30.49 in
Visibility 10.0 miles
Clouds Scattered Clouds 2600 ft
Mostly Cloudy 3600 ft
Overcast 4600 ft
Windchill 49 °F
Dew Point 42 °F
Humidity 75%
Rainfall 0.02 in
Snow Depth Not available.
6:48 AM 5:58 PM
Waxing Crescent, 13% visible
METAR KPDX 012053Z 21008G18KT 10SM SCT026 BKN036 OVC046 10/04 A3049 RMK AO2 SLP323 T01000039 58002

Get Your Daily Forecast Email!

Thanks for signing up!

Be on the lookout for a verification email in your inbox.

You'll start receiving the daily forecast at 8 AM.

×

10-Day Weather Forecast

Almanac

Astronomy

Mar. 01, 2017 Rise Set
Actual Time
Civil Twilight
Nautical Twilight
Astronomical Twilight
Moon
Length of Visible Light
Length of Day
Tomorrow will be .
, % of the Moon is Illuminated

Today's Extremes

State Highs State Lows

Community

WunderPhotos

Upload Photos

1,962,540 photos uploaded!

WunderBlog® & News

Nearby

Air Quality

  Air Quality AQ Index Pollutant
Not available.

Snow Depth

Station Depth Elevation

Earthquake Activity

City Distance Mag. Time & Date
Minimum magnitude displayed is 2.5.

Coastal Water Temperatures

Place Temperature

Stations

Nearby Weather Stations

Station Location Temp. Windchill Dew Point Humidity Wind Precip. Elev Updated Type
                   

Watches & Warnings

There are currently no watches in effect.